Time;durP1;ratioP1;P1;durP2;ratioP2;P2;SDS_P1;SDS_P2;PMS_P1;PMS_P2;Temp;Humidity;BMP_temperature;BMP_pressure;BME280_temperature;BME280_humidity;BME280_pressure;Samples;Min_cycle;Max_cycle;Signal;HPM_P1;HPM_P2
2023/09/10 00:01:16;;;;;;;17.48;13.93;;;18.20;99.90;;;;;;4998388;28;20636;-79
2023/09/10 00:03:47;;;;;;;18.95;14.45;;;18.20;99.90;;;;;;4998239;28;20169;-79
2023/09/10 00:06:13;;;;;;;20.50;14.88;;;18.20;99.90;;;;;;4979705;28;20231;-79
2023/09/10 00:08:44;;;;;;;17.42;14.40;;;18.10;99.90;;;;;;4980744;28;20184;-78
2023/09/10 00:11:10;;;;;;;19.83;15.00;;;18.00;99.90;;;;;;4982988;28;20628;-79
2023/09/10 00:13:47;;;;;;;17.10;14.32;;;18.00;99.90;;;;;;5004156;28;20259;-79
2023/09/10 00:16:13;;;;;;;16.52;13.98;;;18.00;99.90;;;;;;4986930;28;20207;-79
2023/09/10 00:18:39;;;;;;;14.90;12.85;;;18.00;99.90;;;;;;4987142;28;20205;-79
2023/09/10 00:21:04;;;;;;;18.10;13.82;;;17.80;99.90;;;;;;4988863;28;20258;-79
2023/09/10 00:23:36;;;;;;;18.08;13.88;;;17.70;99.90;;;;;;5005896;28;20168;-79
2023/09/10 00:26:02;;;;;;;18.40;12.52;;;17.60;99.90;;;;;;5004954;28;20552;-79
2023/09/10 00:28:28;;;;;;;13.98;11.95;;;17.60;99.90;;;;;;5020382;28;20180;-79
2023/09/10 00:30:59;;;;;;;15.88;11.65;;;17.60;99.90;;;;;;4987580;28;20188;-79
2023/09/10 00:33:25;;;;;;;13.40;11.00;;;17.50;99.90;;;;;;5005124;28;20177;-79
2023/09/10 00:35:51;;;;;;;13.10;10.63;;;17.50;99.90;;;;;;5019685;28;20211;-79
2023/09/10 00:38:25;;;;;;;13.85;11.05;;;17.40;99.90;;;;;;4986417;28;20212;-79
2023/09/10 00:40:53;;;;;;;15.52;12.93;;;17.30;99.90;;;;;;4987059;28;20181;-79
2023/09/10 00:43:19;;;;;;;15.00;12.05;;;17.30;99.90;;;;;;4987155;28;20205;-79
2023/09/10 00:45:54;;;;;;;17.80;12.20;;;17.40;99.90;;;;;;5019034;28;20259;-79
2023/09/10 00:48:26;;;;;;;16.35;11.70;;;17.30;99.90;;;;;;5019197;28;20179;-79
2023/09/10 00:50:59;;;;;;;17.63;13.82;;;17.30;99.90;;;;;;5004705;28;20182;-79
2023/09/10 00:53:26;;;;;;;19.70;13.27;;;17.30;99.90;;;;;;4986324;28;20244;-79
2023/09/10 00:55:55;;;;;;;15.77;13.00;;;17.20;99.90;;;;;;4987157;28;20201;-79
2023/09/10 00:58:21;;;;;;;19.38;14.30;;;17.20;99.90;;;;;;4986171;28;20204;-79
2023/09/10 01:00:47;;;;;;;19.90;14.73;;;17.30;99.90;;;;;;5003550;28;20231;-78
2023/09/10 01:03:18;;;;;;;17.92;14.40;;;17.30;99.90;;;;;;5002187;28;20193;-79
2023/09/10 01:05:44;;;;;;;19.52;14.05;;;17.30;99.90;;;;;;5001273;28;20208;-79
2023/09/10 01:08:10;;;;;;;17.25;13.88;;;17.30;99.90;;;;;;4984641;28;20204;-79
2023/09/10 01:11:02;;;;;;;21.98;17.23;;;17.30;99.90;;;;;;5016330;28;20699;-78
2023/09/10 01:13:52;;;;;;;19.73;16.23;;;17.30;99.90;;;;;;4980437;28;20283;-79
2023/09/10 01:16:33;;;;;;;21.95;15.93;;;17.30;99.90;;;;;;4984467;28;20196;-79
2023/09/10 01:19:07;;;;;;;20.83;16.45;;;17.20;99.90;;;;;;5017790;28;20275;-78
2023/09/10 01:22:22;;;;;;;18.85;15.00;;;17.30;99.90;;;;;;4983458;28;20756;-79
2023/09/10 01:24:52;;;;;;;17.15;15.20;;;17.20;99.90;;;;;;4996433;28;20669;-79
2023/09/10 01:27:18;;;;;;;21.52;16.42;;;17.20;99.90;;;;;;5017363;28;20173;-79
2023/09/10 01:29:50;;;;;;;24.13;17.38;;;17.20;99.90;;;;;;4984454;28;20210;-79
2023/09/10 01:32:34;;;;;;;21.27;18.77;;;17.20;99.90;;;;;;4984638;28;20654;-79
2023/09/10 01:35:46;;;;;;;22.60;19.00;;;17.20;99.90;;;;;;5002058;28;20199;-78
2023/09/10 01:38:25;;;;;;;23.45;17.73;;;17.10;99.90;;;;;;4997021;28;20236;-79
2023/09/10 01:41:13;;;;;;;21.33;18.83;;;17.10;99.90;;;;;;5001897;28;20180;-79
2023/09/10 01:43:40;;;;;;;25.63;19.38;;;17.00;99.90;;;;;;4984859;28;20235;-79
2023/09/10 01:46:07;;;;;;;21.17;18.98;;;17.00;99.90;;;;;;4984679;28;20219;-79
2023/09/10 01:48:33;;;;;;;21.08;18.77;;;16.90;99.90;;;;;;4984241;28;20579;-79
2023/09/10 01:50:59;;;;;;;21.05;17.92;;;16.90;99.90;;;;;;4984551;28;20188;-79
2023/09/10 01:53:25;;;;;;;18.30;15.65;;;16.90;99.90;;;;;;4985020;28;20260;-79
2023/09/10 01:55:52;;;;;;;18.40;16.42;;;16.90;99.90;;;;;;5003715;28;20695;-79
2023/09/10 01:58:18;;;;;;;19.30;16.27;;;16.90;99.90;;;;;;5018357;28;20200;-79
2023/09/10 02:00:45;;;;;;;16.70;15.00;;;16.90;99.90;;;;;;5002958;28;20664;-79
2023/09/10 02:03:28;;;;;;;17.10;14.25;;;16.80;99.90;;;;;;5016975;28;20212;-79
2023/09/10 02:06:03;;;;;;;14.20;12.70;;;16.80;99.90;;;;;;5003045;28;20188;-79
2023/09/10 02:08:30;;;;;;;14.05;12.23;;;16.60;99.90;;;;;;5017979;28;20190;-79
2023/09/10 02:10:56;;;;;;;14.80;12.32;;;16.60;99.90;;;;;;4984412;28;20275;-79
2023/09/10 02:13:24;;;;;;;14.73;12.50;;;16.50;99.90;;;;;;4985633;28;20606;-79
2023/09/10 02:15:53;;;;;;;13.57;11.40;;;16.50;99.90;;;;;;5002275;28;20570;-79
2023/09/10 02:18:19;;;;;;;16.88;13.80;;;16.50;99.90;;;;;;4985099;28;20213;-79
2023/09/10 02:20:48;;;;;;;13.73;11.57;;;16.40;99.90;;;;;;4985603;28;20211;-79
2023/09/10 02:23:14;;;;;;;17.63;13.77;;;16.40;99.90;;;;;;4985146;28;20188;-79
2023/09/10 02:25:40;;;;;;;16.58;14.82;;;16.40;99.90;;;;;;5003467;28;20192;-79
2023/09/10 02:28:07;;;;;;;17.35;14.25;;;16.40;99.90;;;;;;4988668;28;20708;-78
2023/09/10 02:30:33;;;;;;;18.52;15.80;;;16.40;99.90;;;;;;4980049;28;20184;-78
2023/09/10 02:32:58;;;;;;;17.27;15.43;;;16.50;99.90;;;;;;4979694;28;20184;-78
2023/09/10 02:35:27;;;;;;;16.65;14.85;;;16.50;99.90;;;;;;5011637;28;20204;-78
2023/09/10 02:37:53;;;;;;;18.83;16.73;;;16.50;99.90;;;;;;4996774;28;20211;-78
2023/09/10 02:40:29;;;;;;;19.73;15.48;;;16.50;99.90;;;;;;4996126;28;20534;-78
2023/09/10 02:42:55;;;;;;;19.52;17.42;;;16.60;99.90;;;;;;4997270;28;20609;-78
2023/09/10 02:45:20;;;;;;;21.17;18.52;;;16.50;99.90;;;;;;4979404;28;20247;-78
2023/09/10 02:47:46;;;;;;;19.27;17.17;;;16.50;99.90;;;;;;4979773;28;20185;-78
2023/09/10 02:50:15;;;;;;;17.90;16.00;;;16.40;99.90;;;;;;4979871;28;20180;-78
2023/09/10 02:52:41;;;;;;;17.30;15.25;;;16.40;99.90;;;;;;4981666;28;20184;-78
2023/09/10 02:55:07;;;;;;;19.42;14.77;;;16.40;99.90;;;;;;5013254;28;20204;-79
2023/09/10 02:57:33;;;;;;;16.88;15.18;;;16.40;99.90;;;;;;4997589;28;20251;-79
2023/09/10 02:59:58;;;;;;;17.17;14.27;;;16.40;99.90;;;;;;4979869;28;20288;-79
2023/09/10 03:02:24;;;;;;;17.15;14.93;;;16.40;99.90;;;;;;4980220;28;20263;-78
2023/09/10 03:04:50;;;;;;;18.13;14.15;;;16.30;99.90;;;;;;4979964;28;20668;-78
2023/09/10 03:07:28;;;;;;;14.45;12.85;;;16.20;99.90;;;;;;4979947;28;20177;-79
2023/09/10 03:09:56;;;;;;;16.27;11.77;;;16.10;99.90;;;;;;4997467;28;20234;-78
2023/09/10 03:12:30;;;;;;;17.02;12.60;;;16.10;99.90;;;;;;4997756;28;20175;-78
2023/09/10 03:14:56;;;;;;;16.33;11.70;;;16.00;99.90;;;;;;4979652;28;20251;-78
2023/09/10 03:17:24;;;;;;;13.55;12.15;;;15.90;99.90;;;;;;4980073;28;20207;-78
2023/09/10 03:19:56;;;;;;;13.50;11.93;;;15.90;99.90;;;;;;4997584;28;20184;-78
2023/09/10 03:22:22;;;;;;;13.68;11.35;;;15.90;99.90;;;;;;5012377;28;20288;-78
2023/09/10 03:24:56;;;;;;;15.52;11.05;;;15.80;99.90;;;;;;5012113;28;20263;-78
2023/09/10 03:27:21;;;;;;;13.32;11.93;;;15.80;99.90;;;;;;4979261;28;20188;-78
2023/09/10 03:29:47;;;;;;;16.30;10.60;;;15.80;99.90;;;;;;4979741;28;20707;-79
2023/09/10 03:32:16;;;;;;;12.48;11.18;;;15.80;99.90;;;;;;4980168;28;20181;-78
2023/09/10 03:34:42;;;;;;;12.63;11.30;;;15.80;99.90;;;;;;4997368;28;20191;-79
2023/09/10 03:37:08;;;;;;;13.88;11.77;;;15.70;99.90;;;;;;5012239;28;20243;-78
2023/09/10 03:39:34;;;;;;;14.18;11.38;;;15.70;99.90;;;;;;4996806;28;20270;-78
2023/09/10 03:42:03;;;;;;;15.30;11.00;;;15.70;99.90;;;;;;4980205;28;20612;-78
2023/09/10 03:44:29;;;;;;;14.75;11.57;;;15.70;99.90;;;;;;4997536;28;20666;-78
2023/09/10 03:46:54;;;;;;;12.85;10.70;;;15.60;99.90;;;;;;5012309;28;20240;-78
2023/09/10 03:49:21;;;;;;;12.70;10.73;;;15.60;99.90;;;;;;5012281;28;20188;-78
2023/09/10 03:51:49;;;;;;;11.05;9.95;;;15.50;99.90;;;;;;4997393;28;20259;-78
2023/09/10 03:54:21;;;;;;;11.98;10.65;;;15.50;99.90;;;;;;4979820;28;20204;-80
2023/09/10 03:56:46;;;;;;;13.15;10.82;;;15.50;99.90;;;;;;4980721;28;20208;-78
2023/09/10 03:59:12;;;;;;;13.55;10.27;;;15.60;99.90;;;;;;4981168;28;20747;-78
2023/09/10 04:01:39;;;;;;;12.93;10.25;;;15.50;99.90;;;;;;4980944;28;20691;-78
2023/09/10 04:04:07;;;;;;;13.75;11.93;;;15.50;99.90;;;;;;4997945;28;20609;-78
2023/09/10 04:06:33;;;;;;;16.30;12.32;;;15.50;99.90;;;;;;4979939;28;20630;-79
2023/09/10 04:09:06;;;;;;;14.38;11.90;;;15.50;99.90;;;;;;4980051;28;20211;-78
2023/09/10 04:11:33;;;;;;;12.70;11.27;;;15.50;99.90;;;;;;4997091;28;20176;-78
2023/09/10 04:13:59;;;;;;;12.80;11.45;;;15.40;99.90;;;;;;4980238;28;20184;-78
2023/09/10 04:16:26;;;;;;;12.85;11.10;;;15.30;99.90;;;;;;4980244;28;20747;-78
2023/09/10 04:19:01;;;;;;;12.20;10.77;;;15.30;99.90;;;;;;4979789;28;20200;-78
2023/09/10 04:21:26;;;;;;;12.32;10.80;;;15.30;99.90;;;;;;4979424;28;20267;-78
2023/09/10 04:23:52;;;;;;;13.40;10.90;;;15.30;99.90;;;;;;4997053;28;20208;-79
2023/09/10 04:26:18;;;;;;;11.65;10.55;;;15.30;99.90;;;;;;4980080;28;20197;-78
2023/09/10 04:28:51;;;;;;;11.70;10.55;;;15.30;99.90;;;;;;4979511;28;20192;-78
2023/09/10 04:31:17;;;;;;;11.35;10.15;;;15.30;99.90;;;;;;4979416;28;20527;-78
2023/09/10 04:33:42;;;;;;;10.80;9.70;;;15.30;99.90;;;;;;4979625;28;20231;-78
2023/09/10 04:36:12;;;;;;;12.43;10.15;;;15.30;99.90;;;;;;4996383;28;20196;-78
2023/09/10 04:38:44;;;;;;;10.60;9.60;;;15.40;99.90;;;;;;4978986;28;20212;-78
2023/09/10 04:41:10;;;;;;;11.70;10.50;;;15.40;99.90;;;;;;4996546;28;20637;-78
2023/09/10 04:43:35;;;;;;;10.13;9.13;;;15.30;99.90;;;;;;5011826;28;20172;-79
2023/09/10 04:46:01;;;;;;;10.75;8.93;;;15.30;99.90;;;;;;5011722;28;20197;-78
2023/09/10 04:48:27;;;;;;;10.35;9.30;;;15.30;99.90;;;;;;4979138;28;20196;-78
2023/09/10 04:51:02;;;;;;;13.13;9.18;;;15.40;99.90;;;;;;4980000;28;20260;-78
2023/09/10 04:53:27;;;;;;;10.20;9.20;;;15.30;99.90;;;;;;4981990;28;20176;-79
2023/09/10 04:55:59;;;;;;;11.07;9.98;;;15.30;99.90;;;;;;4982157;28;20208;-78
2023/09/10 04:58:25;;;;;;;11.85;10.55;;;15.40;99.90;;;;;;4984089;28;20204;-79
2023/09/10 05:00:51;;;;;;;12.43;10.38;;;15.40;99.90;;;;;;5018188;28;20279;-79
2023/09/10 05:03:21;;;;;;;11.35;10.15;;;15.50;99.90;;;;;;5017988;28;20212;-78
2023/09/10 05:06:00;;;;;;;11.00;9.32;;;15.50;99.90;;;;;;4987496;28;20684;-79
2023/09/10 05:08:32;;;;;;;13.88;11.85;;;15.50;99.90;;;;;;4987100;28;20195;-79
2023/09/10 05:11:02;;;;;;;13.93;12.43;;;15.50;99.90;;;;;;5019697;28;20255;-78
2023/09/10 05:13:28;;;;;;;15.18;11.20;;;15.50;99.90;;;;;;5004971;28;20172;-79
2023/09/10 05:15:54;;;;;;;15.30;12.27;;;15.50;99.90;;;;;;5019741;28;20204;-79
2023/09/10 05:18:21;;;;;;;13.15;10.93;;;15.50;99.90;;;;;;4987407;28;20211;-79
2023/09/10 05:20:52;;;;;;;12.77;11.50;;;15.50;99.90;;;;;;5004861;28;20179;-79
2023/09/10 05:23:22;;;;;;;14.60;10.65;;;15.50;99.90;;;;;;4987399;28;20212;-79
2023/09/10 05:25:49;;;;;;;13.27;11.10;;;15.50;99.90;;;;;;4987184;28;20196;-78
2023/09/10 05:28:21;;;;;;;13.57;12.18;;;15.50;99.90;;;;;;5005921;28;20179;-78
2023/09/10 05:30:46;;;;;;;14.23;12.73;;;15.50;99.90;;;;;;4983016;28;20188;-79
2023/09/10 05:33:15;;;;;;;16.05;12.30;;;15.60;99.90;;;;;;5000467;28;20264;-79
2023/09/10 05:35:52;;;;;;;22.77;13.48;;;15.60;99.90;;;;;;4985299;28;20215;-79
2023/09/10 05:38:21;;;;;;;17.80;13.52;;;15.60;99.90;;;;;;4997093;28;20567;-79
2023/09/10 05:40:50;;;;;;;15.00;13.27;;;15.60;99.90;;;;;;4983516;28;20176;-78
2023/09/10 05:43:16;;;;;;;15.63;13.38;;;15.70;99.90;;;;;;4999215;28;20165;-79
2023/09/10 05:45:43;;;;;;;21.48;15.00;;;15.70;99.90;;;;;;4981954;28;20283;-79
2023/09/10 05:48:09;;;;;;;18.42;15.32;;;15.80;99.90;;;;;;4981344;28;20185;-79
2023/09/10 05:50:35;;;;;;;20.60;16.92;;;15.80;99.90;;;;;;4981827;28;20196;-79
2023/09/10 05:53:00;;;;;;;18.17;14.65;;;15.90;99.90;;;;;;4998873;28;20665;-79
2023/09/10 05:55:26;;;;;;;17.30;14.98;;;15.90;99.90;;;;;;4981159;28;20208;-78
2023/09/10 05:57:52;;;;;;;22.02;16.52;;;16.00;99.90;;;;;;4999646;28;20206;-80
2023/09/10 06:00:24;;;;;;;20.17;16.27;;;16.00;99.90;;;;;;4981852;28;20189;-78
2023/09/10 06:02:51;;;;;;;21.48;17.55;;;16.10;99.90;;;;;;4981605;28;20226;-79
2023/09/10 06:05:17;;;;;;;20.98;18.08;;;16.10;99.90;;;;;;4998385;28;20193;-79
2023/09/10 06:07:42;;;;;;;22.08;18.65;;;16.20;99.90;;;;;;4980242;28;20180;-79
2023/09/10 06:10:14;;;;;;;23.08;18.90;;;16.30;99.90;;;;;;4980851;28;20177;-78
2023/09/10 06:12:43;;;;;;;21.05;17.70;;;16.40;99.90;;;;;;4981005;28;20243;-78
2023/09/10 06:15:09;;;;;;;19.67;17.65;;;16.40;99.90;;;;;;4981209;28;20664;-79
2023/09/10 06:17:44;;;;;;;18.30;16.40;;;16.50;99.90;;;;;;4981638;28;20231;-79
2023/09/10 06:20:11;;;;;;;18.08;15.32;;;16.50;99.90;;;;;;4981132;28;20188;-79
2023/09/10 06:22:36;;;;;;;18.88;16.10;;;16.60;99.90;;;;;;4998304;28;20275;-79
2023/09/10 06:25:02;;;;;;;19.50;17.50;;;16.70;99.90;;;;;;5011023;28;20619;-79
2023/09/10 06:27:28;;;;;;;19.40;17.27;;;16.70;99.90;;;;;;5011930;28;20180;-79
2023/09/10 06:30:20;;;;;;;18.45;16.40;;;16.80;99.90;;;;;;4978843;28;20275;-79
2023/09/10 06:32:49;;;;;;;19.48;16.15;;;16.90;99.90;;;;;;4996893;28;20243;-79
2023/09/10 06:35:21;;;;;;;18.27;16.27;;;17.00;99.90;;;;;;4979547;28;20290;-79
2023/09/10 06:37:48;;;;;;;19.50;16.67;;;17.00;99.90;;;;;;4979688;28;20666;-79
2023/09/10 06:40:14;;;;;;;18.88;15.18;;;17.10;99.90;;;;;;4978540;28;20255;-79
2023/09/10 06:42:46;;;;;;;19.60;16.30;;;17.20;99.90;;;;;;4977061;28;20188;-79
2023/09/10 06:45:12;;;;;;;18.70;15.30;;;17.30;99.90;;;;;;5011354;28;20210;-79
2023/09/10 06:47:41;;;;;;;18.33;14.45;;;17.40;99.90;;;;;;4978753;28;20571;-79
2023/09/10 06:50:07;;;;;;;18.02;16.08;;;17.50;99.90;;;;;;5011013;28;20183;-79
2023/09/10 06:52:32;;;;;;;22.23;16.90;;;17.60;99.90;;;;;;5011324;28;20176;-79
2023/09/10 06:54:58;;;;;;;21.05;16.88;;;17.60;99.90;;;;;;5011113;28;20198;-79
2023/09/10 06:57:30;;;;;;;20.98;18.23;;;17.70;99.90;;;;;;5011464;28;20184;-79
2023/09/10 06:59:57;;;;;;;21.83;18.55;;;17.90;99.90;;;;;;4996615;28;20200;-79
2023/09/10 07:02:24;;;;;;;22.73;18.95;;;17.90;99.90;;;;;;5011728;28;20196;-79
2023/09/10 07:04:50;;;;;;;21.02;17.92;;;18.10;99.90;;;;;;4978434;28;20203;-79
2023/09/10 07:07:16;;;;;;;20.50;16.23;;;18.20;99.90;;;;;;4978534;28;20659;-79
2023/09/10 07:09:41;;;;;;;18.33;15.43;;;18.30;99.90;;;;;;4978108;28;20203;-79
2023/09/10 07:12:07;;;;;;;18.10;15.50;;;18.30;99.90;;;;;;4979229;28;20208;-79
2023/09/10 07:14:39;;;;;;;21.40;17.77;;;18.40;99.90;;;;;;4978230;28;20204;-79
2023/09/10 07:17:06;;;;;;;25.75;18.05;;;18.50;99.90;;;;;;4978406;28;20191;-79
2023/09/10 07:19:34;;;;;;;16.13;14.00;;;18.60;99.90;;;;;;4977798;28;20295;-78
2023/09/10 07:21:59;;;;;;;17.50;14.52;;;18.60;99.90;;;;;;4995539;28;20177;-79
2023/09/10 07:24:25;;;;;;;16.88;15.07;;;18.70;99.90;;;;;;4996323;28;20174;-79
2023/09/10 07:26:54;;;;;;;17.05;14.63;;;18.80;99.90;;;;;;4978326;28;20228;-79
2023/09/10 07:29:20;;;;;;;21.02;17.40;;;18.90;99.90;;;;;;4979174;28;20180;-79
2023/09/10 07:31:48;;;;;;;20.25;15.93;;;19.00;99.90;;;;;;4978168;28;20644;-79
2023/09/10 07:34:20;;;;;;;17.30;15.43;;;19.10;99.90;;;;;;4978558;28;20180;-79
2023/09/10 07:36:49;;;;;;;19.90;17.80;;;19.20;99.90;;;;;;4997179;28;20188;-79
2023/09/10 07:39:19;;;;;;;20.90;16.40;;;19.40;99.90;;;;;;4981272;28;20752;-79
2023/09/10 07:41:47;;;;;;;19.50;16.55;;;19.50;99.90;;;;;;4965387;28;20211;-79
2023/09/10 07:44:13;;;;;;;28.20;17.92;;;19.60;99.90;;;;;;4998360;28;20168;-79
2023/09/10 07:46:38;;;;;;;16.92;14.95;;;19.70;99.90;;;;;;4999237;28;20246;-79
2023/09/10 07:49:15;;;;;;;21.02;14.48;;;19.80;99.90;;;;;;5014171;28;20242;-79
2023/09/10 07:51:41;;;;;;;22.75;17.25;;;19.90;99.90;;;;;;5012216;28;20180;-79
2023/09/10 07:54:07;;;;;;;23.40;16.35;;;20.00;99.90;;;;;;4997112;28;20578;-79
2023/09/10 07:56:32;;;;;;;19.92;16.45;;;20.10;99.90;;;;;;4996224;28;20234;-79
2023/09/10 07:58:58;;;;;;;18.20;15.70;;;20.30;99.90;;;;;;4979129;28;20277;-79
2023/09/10 08:01:24;;;;;;;19.02;16.23;;;20.30;99.90;;;;;;4979217;28;20334;-79
2023/09/10 08:03:50;;;;;;;26.50;17.02;;;20.50;99.90;;;;;;4996727;28;20175;-79
2023/09/10 08:06:15;;;;;;;20.10;16.33;;;20.60;99.90;;;;;;4979426;28;20199;-79
2023/09/10 08:08:41;;;;;;;19.15;15.68;;;20.80;99.90;;;;;;4980428;28;20180;-79
2023/09/10 08:11:07;;;;;;;20.52;15.93;;;21.00;99.90;;;;;;4979763;28;20275;-79
2023/09/10 08:13:33;;;;;;;17.63;15.18;;;21.20;99.90;;;;;;5013496;28;20189;-79
2023/09/10 08:15:59;;;;;;;18.63;14.77;;;21.40;99.90;;;;;;4997100;28;20193;-79
2023/09/10 08:18:24;;;;;;;15.88;13.98;;;21.50;99.90;;;;;;4980707;28;20219;-79
2023/09/10 08:20:50;;;;;;;16.88;13.32;;;21.50;99.90;;;;;;4998172;28;20173;-79
2023/09/10 08:23:16;;;;;;;16.58;13.95;;;21.60;99.90;;;;;;4980742;28;20230;-79
2023/09/10 08:25:42;;;;;;;17.88;14.82;;;21.60;99.90;;;;;;4981011;28;20196;-79
2023/09/10 08:28:07;;;;;;;20.83;14.15;;;21.70;99.90;;;;;;4981351;28;20539;-79
2023/09/10 08:30:33;;;;;;;16.40;14.23;;;21.90;99.90;;;;;;4998067;28;20188;-79
2023/09/10 08:32:59;;;;;;;16.50;13.35;;;22.00;99.90;;;;;;5002106;28;20184;-79
2023/09/10 08:35:45;;;;;;;19.23;15.13;;;22.10;99.90;;;;;;4985289;28;20231;-79
2023/09/10 08:38:12;;;;;;;20.42;14.30;;;22.40;99.90;;;;;;5002125;28;20196;-79
2023/09/10 08:40:59;;;;;;;18.52;13.63;;;22.60;99.90;;;;;;5001194;28;20219;-79
2023/09/10 08:43:48;;;;;;;16.08;11.93;;;23.00;99.90;;;;;;5017535;28;20173;-78
2023/09/10 08:46:14;;;;;;;17.48;12.73;;;23.10;99.90;;;;;;5002314;28;20201;-79
2023/09/10 08:48:41;;;;;;;19.15;13.55;;;23.30;99.90;;;;;;5002021;28;20291;-79
2023/09/10 08:51:08;;;;;;;16.70;12.90;;;23.50;99.90;;;;;;4984419;28;20270;-79
2023/09/10 08:53:43;;;;;;;16.15;12.98;;;23.70;99.90;;;;;;4984312;28;20275;-79
2023/09/10 08:56:10;;;;;;;15.43;13.35;;;23.80;99.90;;;;;;4984410;28;20208;-79
2023/09/10 08:58:41;;;;;;;16.58;13.00;;;24.00;99.90;;;;;;4984230;28;20231;-79
2023/09/10 09:01:09;;;;;;;16.98;13.07;;;24.10;99.90;;;;;;4984511;28;20235;-79
2023/09/10 09:03:35;;;;;;;15.60;13.05;;;24.20;99.90;;;;;;4984622;28;20208;-79
2023/09/10 09:06:03;;;;;;;18.33;13.85;;;24.20;99.90;;;;;;4983895;28;20680;-78
2023/09/10 09:08:34;;;;;;;16.23;13.50;;;24.20;99.90;;;;;;4981074;28;20183;-78
2023/09/10 09:11:06;;;;;;;15.65;13.20;;;24.30;99.90;;;;;;4981098;28;20296;-78
2023/09/10 09:13:42;;;;;;;15.73;12.60;;;24.40;99.90;;;;;;5014022;28;20203;-78
2023/09/10 09:16:09;;;;;;;17.58;12.93;;;24.80;99.90;;;;;;4980973;28;20206;-78
2023/09/10 09:18:36;;;;;;;17.90;12.98;;;25.00;99.90;;;;;;4998032;28;20199;-78
2023/09/10 09:21:19;;;;;;;14.88;11.23;;;25.20;99.90;;;;;;4998750;28;20181;-78
2023/09/10 09:24:00;;;;;;;16.27;12.00;;;25.30;99.90;;;;;;4980488;28;20253;-78
2023/09/10 09:26:30;;;;;;;17.42;12.80;;;25.50;99.90;;;;;;5013650;28;20203;-78
2023/09/10 09:28:57;;;;;;;15.45;12.52;;;25.70;99.90;;;;;;4980699;28;20187;-78
2023/09/10 09:31:24;;;;;;;15.55;12.45;;;25.70;99.90;;;;;;4980618;28;20652;-77
2023/09/10 09:33:51;;;;;;;13.32;11.60;;;25.70;99.90;;;;;;5012958;28;20667;-78
2023/09/10 09:36:16;;;;;;;14.63;12.85;;;25.70;99.90;;;;;;4998899;28;20203;-78
2023/09/10 09:38:44;;;;;;;16.45;12.30;;;25.80;99.90;;;;;;4999806;28;20200;-77
2023/09/10 09:41:14;;;;;;;14.13;10.50;;;25.80;29.70;;;;;;5013206;28;20180;-78
2023/09/10 09:43:40;;;;;;;13.95;10.13;;;25.90;99.90;;;;;;4979898;28;20180;-78
2023/09/10 09:46:05;;;;;;;15.52;10.45;;;26.00;99.90;;;;;;4980393;28;20210;-78
2023/09/10 09:48:33;;;;;;;13.18;9.60;;;26.00;1.00;;;;;;4980032;28;20191;-78
2023/09/10 09:51:03;;;;;;;12.48;8.10;;;26.00;1.00;;;;;;4980990;28;20176;-78
2023/09/10 09:53:33;;;;;;;14.10;9.07;;;26.00;1.00;;;;;;4980262;28;20666;-78
2023/09/10 09:56:08;;;;;;;13.55;7.15;;;26.00;1.00;;;;;;4980262;28;20200;-78
2023/09/10 09:58:34;;;;;;;10.82;7.15;;;26.00;1.00;;;;;;4998401;28;20695;-78
2023/09/10 10:01:00;;;;;;;11.98;6.55;;;26.10;1.00;;;;;;4998003;28;20191;-78
2023/09/10 10:03:31;;;;;;;8.95;5.75;;;26.10;99.90;;;;;;4980832;28;20181;-78
2023/09/10 10:05:57;;;;;;;6.30;4.90;;;26.20;1.00;;;;;;4980576;28;20250;-77
2023/09/10 10:08:29;;;;;;;9.73;5.20;;;26.20;1.00;;;;;;4980337;28;20184;-78
2023/09/10 10:10:55;;;;;;;9.45;5.05;;;26.20;1.00;;;;;;4980431;28;20185;-78
2023/09/10 10:13:23;;;;;;;12.85;4.45;;;26.30;99.90;;;;;;4980217;28;20218;-78
2023/09/10 10:15:51;;;;;;;6.45;4.35;;;26.30;1.00;;;;;;4979440;28;20204;-78
2023/09/10 10:18:26;;;;;;;8.77;5.70;;;26.30;1.00;;;;;;4979257;28;20207;-78
2023/09/10 10:20:51;;;;;;;8.85;6.07;;;26.40;94.10;;;;;;4996804;28;20571;-78
2023/09/10 10:23:19;;;;;;;10.50;6.05;;;26.50;99.90;;;;;;4979489;28;20196;-78
2023/09/10 10:25:47;;;;;;;12.68;6.63;;;26.50;1.00;;;;;;4996346;28;20196;-78
2023/09/10 10:28:13;;;;;;;9.82;5.70;;;26.60;1.00;;;;;;4996818;28;20683;-78
2023/09/10 10:30:54;;;;;;;11.98;5.68;;;26.60;1.00;;;;;;4996662;28;20219;-78
2023/09/10 10:33:23;;;;;;;13.70;5.45;;;26.60;99.90;;;;;;4979064;28;20252;-78
2023/09/10 10:36:18;;;;;;;13.18;5.40;;;26.60;1.00;;;;;;4978505;28;20235;-78
2023/09/10 10:38:45;;;;;;;13.38;5.78;;;26.70;99.90;;;;;;4961108;28;20219;-77
2023/09/10 10:41:17;;;;;;;8.75;4.93;;;26.70;78.90;;;;;;4978473;28;20691;-78
2023/09/10 10:44:11;;;;;;;12.02;5.55;;;26.80;1.00;;;;;;4996048;28;20176;-78
2023/09/10 10:46:42;;;;;;;12.50;5.47;;;26.90;99.90;;;;;;4996291;28;20196;-78
2023/09/10 10:49:09;;;;;;;15.07;5.88;;;27.10;93.40;;;;;;4978832;28;20593;-78
2023/09/10 10:51:39;;;;;;;14.02;5.80;;;27.20;99.90;;;;;;4978428;28;20203;-78
2023/09/10 10:54:06;;;;;;;13.93;5.60;;;27.30;1.00;;;;;;4995649;28;20292;-78
2023/09/10 10:56:33;;;;;;;17.05;5.45;;;27.50;99.90;;;;;;4978206;28;20196;-78
2023/09/10 10:58:58;;;;;;;23.27;6.10;;;27.60;99.90;;;;;;4996311;28;20656;-78
2023/09/10 11:01:24;;;;;;;17.10;5.68;;;27.70;99.90;;;;;;4978339;28;20214;-78
2023/09/10 11:03:50;;;;;;;20.05;5.72;;;27.80;99.90;;;;;;5012130;28;20183;-77
2023/09/10 11:06:16;;;;;;;22.15;7.13;;;27.90;1.00;;;;;;4996321;28;20396;-77
2023/09/10 11:08:46;;;;;;;13.45;5.88;;;28.10;1.00;;;;;;4979441;28;20720;-78
2023/09/10 11:11:33;;;;;;;9.07;5.65;;;28.20;99.90;;;;;;4996327;28;20173;-78
2023/09/10 11:14:05;;;;;;;12.15;5.70;;;28.30;99.90;;;;;;4979041;28;20183;-78
2023/09/10 11:16:32;;;;;;;17.52;5.65;;;28.50;45.20;;;;;;4999031;28;20196;-78
2023/09/10 11:18:59;;;;;;;15.23;6.13;;;28.70;1.00;;;;;;4998785;28;20743;-79
2023/09/10 11:21:56;;;;;;;13.93;5.82;;;28.70;1.00;;;;;;4981444;28;20529;-79
2023/09/10 11:24:22;;;;;;;14.07;5.85;;;28.80;99.90;;;;;;4981278;28;20181;-79
2023/09/10 11:26:48;;;;;;;16.25;5.70;;;28.90;99.90;;;;;;4998553;28;20193;-79
2023/09/10 11:29:19;;;;;;;13.18;5.55;;;29.00;1.00;;;;;;4981336;28;20195;-79
2023/09/10 11:31:51;;;;;;;11.93;5.72;;;29.20;1.00;;;;;;4998290;28;20246;-79
2023/09/10 11:34:17;;;;;;;14.10;6.32;;;29.40;99.90;;;;;;4998218;28;20172;-79
2023/09/10 11:37:01;;;;;;;10.68;5.75;;;29.50;12.10;;;;;;4978556;28;20299;-78
2023/09/10 11:39:29;;;;;;;13.95;6.05;;;29.70;1.00;;;;;;4978281;28;20242;-80
2023/09/10 11:42:00;;;;;;;10.95;5.90;;;29.60;99.90;;;;;;4996283;28;20667;-77
2023/09/10 11:44:28;;;;;;;14.95;6.40;;;29.60;1.00;;;;;;4977676;28;20176;-78
2023/09/10 11:46:54;;;;;;;18.27;6.60;;;29.70;99.90;;;;;;4995879;28;20196;-78
2023/09/10 11:49:22;;;;;;;12.98;5.82;;;29.70;1.00;;;;;;4977731;28;20311;-77
2023/09/10 11:51:53;;;;;;;12.93;6.57;;;29.90;99.90;;;;;;4978197;28;20230;-78
2023/09/10 11:54:22;;;;;;;14.65;6.45;;;30.00;1.00;;;;;;4996559;28;20235;-78
2023/09/10 11:56:52;;;;;;;16.65;6.90;;;30.30;99.90;;;;;;4978372;28;20585;-78
2023/09/10 11:59:25;;;;;;;11.65;6.45;;;30.40;1.00;;;;;;4978298;28;20204;-78
2023/09/10 12:01:55;;;;;;;12.88;7.22;;;30.60;1.00;;;;;;4978614;28;20211;-78
2023/09/10 12:04:32;;;;;;;13.95;6.95;;;30.70;99.90;;;;;;4995738;28;20195;-78
2023/09/10 12:06:58;;;;;;;11.65;6.53;;;30.70;99.90;;;;;;4980330;28;20164;-78
2023/09/10 12:09:31;;;;;;;16.58;7.32;;;30.80;1.00;;;;;;5000145;28;20180;-78
2023/09/10 12:12:02;;;;;;;14.63;7.07;;;30.90;99.90;;;;;;5001060;28;20171;-78
2023/09/10 12:14:28;;;;;;;12.05;7.68;;;31.00;99.90;;;;;;4983249;28;20169;-78
2023/09/10 12:16:54;;;;;;;14.80;7.55;;;31.20;1.00;;;;;;5000591;28;20196;-78
2023/09/10 12:19:20;;;;;;;12.52;7.25;;;31.00;99.90;;;;;;5000341;28;20292;-78
2023/09/10 12:21:46;;;;;;;11.75;7.75;;;31.20;1.00;;;;;;4983084;28;20187;-78
2023/09/10 12:24:13;;;;;;;11.88;6.82;;;31.40;1.00;;;;;;4983188;28;20198;-78
2023/09/10 12:26:38;;;;;;;13.18;6.53;;;31.50;99.90;;;;;;5000415;28;20661;-79
2023/09/10 12:29:05;;;;;;;15.07;6.78;;;31.70;99.90;;;;;;4981821;28;20180;-78
2023/09/10 12:31:30;;;;;;;13.43;7.13;;;31.90;1.00;;;;;;4980250;28;20192;-77
2023/09/10 12:33:56;;;;;;;11.82;6.85;;;32.20;1.00;;;;;;4980542;28;20191;-78
2023/09/10 12:36:22;;;;;;;13.98;7.18;;;32.40;1.00;;;;;;4997985;28;20571;-78
2023/09/10 12:38:48;;;;;;;13.40;6.95;;;32.60;1.00;;;;;;4997898;28;20279;-78
2023/09/10 12:41:17;;;;;;;11.85;6.72;;;32.70;94.70;;;;;;4997391;28;20173;-78